Time;durP1;ratioP1;P1;durP2;ratioP2;P2;SDS_P1;SDS_P2;PMS_P1;PMS_P2;Temp;Humidity;BMP_temperature;BMP_pressure;BME280_temperature;BME280_humidity;BME280_pressure;Samples;Min_cycle;Max_cycle;Signal;HPM_P1;HPM_P2
2021/08/22 00:00:36;;;;;;;5.87;5.20;;;23.60;38.40;;;;;;5012768;28;20260;-65
2021/08/22 00:03:01;;;;;;;5.40;5.00;;;23.60;38.30;;;;;;5012746;28;20192;-65
2021/08/22 00:05:27;;;;;;;5.20;4.90;;;23.60;38.40;;;;;;5012461;28;20636;-66
2021/08/22 00:07:52;;;;;;;6.27;5.60;;;23.60;38.30;;;;;;5012542;28;20205;-66
2021/08/22 00:10:18;;;;;;;6.10;5.60;;;23.60;38.40;;;;;;5012603;28;20165;-65
2021/08/22 00:12:44;;;;;;;5.30;4.90;;;23.60;38.30;;;;;;5012356;28;20165;-66
2021/08/22 00:15:10;;;;;;;6.60;4.80;;;23.60;38.30;;;;;;5012526;28;20407;-67
2021/08/22 00:17:35;;;;;;;5.30;4.97;;;23.60;38.30;;;;;;5012443;28;20199;-67
2021/08/22 00:20:02;;;;;;;5.40;5.00;;;23.60;38.40;;;;;;5012385;28;20404;-66
2021/08/22 00:22:27;;;;;;;5.03;4.63;;;23.60;38.40;;;;;;5012480;28;20212;-66
2021/08/22 00:24:53;;;;;;;5.43;5.03;;;23.60;38.30;;;;;;5012207;28;20471;-66
2021/08/22 00:27:18;;;;;;;5.40;5.00;;;23.60;38.40;;;;;;5011774;28;20246;-66
2021/08/22 00:29:44;;;;;;;6.37;5.87;;;23.60;38.50;;;;;;5012425;28;20227;-66
2021/08/22 00:32:09;;;;;;;6.50;5.90;;;23.60;38.50;;;;;;5012216;28;20169;-66
2021/08/22 00:34:35;;;;;;;5.10;4.77;;;23.60;38.60;;;;;;5012389;28;20177;-66
2021/08/22 00:37:01;;;;;;;5.10;4.70;;;23.60;38.50;;;;;;5012043;28;20183;-66
2021/08/22 00:39:28;;;;;;;5.77;5.23;;;23.60;38.60;;;;;;5012323;28;20636;-66
2021/08/22 00:41:53;;;;;;;5.90;5.30;;;23.60;38.60;;;;;;5011954;28;20185;-66
2021/08/22 00:44:20;;;;;;;5.73;5.23;;;23.60;38.60;;;;;;5012253;28;20408;-66
2021/08/22 00:46:56;;;;;;;5.10;4.60;;;23.60;38.50;;;;;;5011943;28;20213;-66
2021/08/22 00:49:24;;;;;;;4.93;4.53;;;23.60;38.50;;;;;;5012355;28;20456;-67
2021/08/22 00:51:49;;;;;;;5.83;5.33;;;23.60;38.70;;;;;;5011948;28;20450;-66
2021/08/22 00:54:15;;;;;;;4.57;4.27;;;23.60;38.60;;;;;;5012171;28;20825;-67
2021/08/22 00:56:41;;;;;;;5.70;5.20;;;23.60;38.70;;;;;;5011706;28;20528;-66
2021/08/22 00:59:09;;;;;;;5.10;4.70;;;23.60;38.70;;;;;;5011952;28;20213;-66
2021/08/22 01:01:37;;;;;;;6.17;5.60;;;23.60;38.70;;;;;;5012015;28;20459;-66
2021/08/22 01:04:08;;;;;;;6.60;5.40;;;23.50;38.60;;;;;;5012081;28;20462;-67
2021/08/22 01:07:04;;;;;;;5.23;4.83;;;23.50;38.70;;;;;;5011732;28;20485;-67
2021/08/22 01:09:40;;;;;;;6.00;5.23;;;23.60;38.80;;;;;;5011976;28;20513;-66
2021/08/22 01:12:10;;;;;;;4.87;4.50;;;23.50;38.70;;;;;;5011805;28;20415;-66
2021/08/22 01:14:45;;;;;;;5.43;4.93;;;23.50;38.80;;;;;;5011913;28;20830;-66
2021/08/22 01:17:12;;;;;;;5.10;4.70;;;23.50;38.80;;;;;;5011645;28;20432;-66
2021/08/22 01:20:04;;;;;;;4.90;4.50;;;23.50;38.70;;;;;;5011864;28;20447;-66
2021/08/22 01:22:32;;;;;;;4.43;4.13;;;23.50;38.80;;;;;;5011764;28;20423;-66
2021/08/22 01:24:57;;;;;;;4.97;4.57;;;23.50;38.70;;;;;;5011739;28;20488;-66
2021/08/22 01:27:24;;;;;;;5.43;5.03;;;23.50;38.80;;;;;;5011593;28;20432;-66
2021/08/22 01:30:00;;;;;;;5.43;5.03;;;23.50;38.70;;;;;;5011812;28;20224;-66
2021/08/22 01:32:38;;;;;;;6.40;5.07;;;23.50;38.80;;;;;;5011689;28;20416;-66
2021/08/22 01:35:06;;;;;;;5.10;4.70;;;23.50;38.70;;;;;;5011625;28;20849;-66
2021/08/22 01:37:33;;;;;;;5.37;4.97;;;23.50;38.80;;;;;;5011626;28;20519;-66
2021/08/22 01:39:59;;;;;;;5.40;5.00;;;23.50;38.70;;;;;;5013578;28;20953;-66
2021/08/22 01:42:26;;;;;;;6.23;5.33;;;23.50;38.80;;;;;;5015182;28;20423;-66
2021/08/22 01:44:51;;;;;;;4.97;4.57;;;23.50;38.80;;;;;;5015252;28;20408;-66
2021/08/22 01:47:17;;;;;;;4.73;4.43;;;23.50;38.80;;;;;;5015156;28;20436;-66
2021/08/22 01:49:44;;;;;;;5.70;5.30;;;23.50;38.80;;;;;;5015347;28;20513;-66
2021/08/22 01:52:15;;;;;;;4.73;4.40;;;23.50;38.80;;;;;;5015054;28;20161;-66
2021/08/22 01:54:42;;;;;;;5.00;4.60;;;23.50;38.90;;;;;;5014987;28;20416;-66
2021/08/22 01:57:09;;;;;;;6.47;4.87;;;23.50;38.90;;;;;;5015039;28;20460;-66
2021/08/22 01:59:36;;;;;;;4.60;4.20;;;23.50;38.80;;;;;;5015123;28;20407;-66
2021/08/22 02:02:02;;;;;;;5.13;4.73;;;23.50;38.90;;;;;;5015030;28;20830;-65
2021/08/22 02:04:46;;;;;;;5.13;4.67;;;23.50;38.80;;;;;;5015006;28;20416;-65
2021/08/22 02:07:14;;;;;;;4.87;4.47;;;23.50;38.80;;;;;;5015163;28;20597;-66
2021/08/22 02:09:52;;;;;;;5.53;5.13;;;23.50;38.80;;;;;;5014799;28;20420;-66
2021/08/22 02:12:20;;;;;;;4.87;4.47;;;23.50;38.80;;;;;;5014638;28;20416;-66
2021/08/22 02:15:02;;;;;;;4.63;4.23;;;23.50;38.90;;;;;;5014700;28;20424;-66
2021/08/22 02:17:35;;;;;;;4.93;4.53;;;23.50;38.90;;;;;;5014611;28;20784;-66
2021/08/22 02:20:03;;;;;;;4.80;4.50;;;23.50;38.90;;;;;;5014636;28;20416;-66
2021/08/22 02:22:29;;;;;;;5.00;4.50;;;23.50;38.90;;;;;;5014443;28;20847;-65
2021/08/22 02:24:57;;;;;;;4.50;4.20;;;23.50;39.00;;;;;;5014526;28;20805;-66
2021/08/22 02:27:23;;;;;;;4.90;4.40;;;23.50;39.00;;;;;;5014358;28;20424;-66
2021/08/22 02:29:51;;;;;;;5.03;4.23;;;23.50;38.90;;;;;;5014529;28;20470;-65
2021/08/22 02:32:17;;;;;;;5.37;4.87;;;23.50;38.90;;;;;;5014299;28;20426;-66
2021/08/22 02:34:43;;;;;;;4.93;4.60;;;23.50;39.00;;;;;;5014209;28;20435;-65
2021/08/22 02:37:09;;;;;;;4.03;3.83;;;23.50;38.90;;;;;;5014173;28;20429;-66
2021/08/22 02:39:36;;;;;;;4.90;4.50;;;23.50;38.90;;;;;;5014369;28;20412;-66
2021/08/22 02:42:03;;;;;;;4.20;3.90;;;23.50;39.00;;;;;;5013982;28;20463;-66
2021/08/22 02:44:29;;;;;;;4.90;4.60;;;23.50;39.10;;;;;;5014209;28;20413;-66
2021/08/22 02:46:54;;;;;;;4.77;4.40;;;23.50;39.10;;;;;;5013696;28;20428;-66
2021/08/22 02:49:20;;;;;;;5.50;4.53;;;23.50;39.10;;;;;;5014128;28;20320;-66
2021/08/22 02:51:45;;;;;;;4.70;4.20;;;23.50;39.10;;;;;;5013781;28;20260;-66
2021/08/22 02:54:10;;;;;;;4.33;4.03;;;23.50;39.10;;;;;;5013936;28;20178;-66
2021/08/22 02:56:36;;;;;;;5.03;4.73;;;23.50;39.10;;;;;;5013776;28;20224;-66
2021/08/22 02:59:01;;;;;;;4.17;3.87;;;23.50;39.10;;;;;;5013784;28;20217;-66
2021/08/22 03:01:27;;;;;;;5.50;4.97;;;23.50;39.10;;;;;;5013946;28;20185;-66
2021/08/22 03:03:52;;;;;;;6.07;5.47;;;23.50;39.10;;;;;;5013909;28;20177;-66
2021/08/22 03:06:18;;;;;;;4.40;4.10;;;23.50;39.10;;;;;;5013652;28;20647;-66
2021/08/22 03:08:43;;;;;;;4.53;4.23;;;23.50;39.00;;;;;;5013504;28;20205;-66
2021/08/22 03:11:09;;;;;;;4.60;4.20;;;23.50;39.10;;;;;;5013657;28;20170;-66
2021/08/22 03:13:35;;;;;;;4.70;4.40;;;23.50;39.00;;;;;;5013567;28;20177;-66
2021/08/22 03:16:01;;;;;;;3.67;3.47;;;23.40;38.90;;;;;;5013582;28;20521;-66
2021/08/22 03:18:26;;;;;;;4.33;4.03;;;23.50;39.10;;;;;;5013397;28;20443;-67
2021/08/22 03:20:52;;;;;;;4.63;4.13;;;23.40;39.00;;;;;;5013736;28;20239;-65
2021/08/22 03:23:17;;;;;;;4.63;4.33;;;23.50;39.00;;;;;;5013295;28;20173;-67
2021/08/22 03:25:43;;;;;;;4.67;4.37;;;23.40;38.90;;;;;;5013272;28;20633;-66
2021/08/22 03:28:08;;;;;;;4.97;4.57;;;23.40;39.00;;;;;;5013187;28;20201;-66
2021/08/22 03:30:34;;;;;;;4.33;4.07;;;23.50;39.10;;;;;;5013442;28;20173;-65
2021/08/22 03:32:59;;;;;;;4.40;4.10;;;23.40;39.10;;;;;;5011861;28;20236;-65
2021/08/22 03:35:25;;;;;;;4.90;4.50;;;23.40;39.00;;;;;;5013131;28;20173;-65
2021/08/22 03:37:50;;;;;;;4.80;4.40;;;23.50;39.10;;;;;;5013015;28;20558;-66
2021/08/22 03:40:17;;;;;;;4.50;4.20;;;23.40;39.10;;;;;;5013178;28;20666;-65
2021/08/22 03:42:42;;;;;;;5.77;4.63;;;23.40;39.10;;;;;;5013046;28;20536;-65
2021/08/22 03:45:08;;;;;;;4.90;4.50;;;23.40;39.10;;;;;;5012931;28;20419;-65
2021/08/22 03:47:34;;;;;;;4.07;3.77;;;23.40;39.10;;;;;;5012770;28;20205;-65
2021/08/22 03:49:59;;;;;;;4.07;3.73;;;23.50;39.20;;;;;;5012982;28;20409;-66
2021/08/22 03:52:25;;;;;;;4.33;4.03;;;23.50;39.10;;;;;;5012880;28;20177;-66
2021/08/22 03:54:50;;;;;;;4.40;4.00;;;23.40;39.00;;;;;;5012714;28;20170;-65
2021/08/22 03:57:16;;;;;;;4.10;3.80;;;23.50;39.10;;;;;;5012621;28;20221;-65
2021/08/22 03:59:41;;;;;;;4.20;3.90;;;23.40;39.00;;;;;;5012836;28;20170;-65
2021/08/22 04:02:07;;;;;;;4.37;3.90;;;23.50;39.10;;;;;;5012191;28;20232;-66
2021/08/22 04:04:32;;;;;;;3.87;3.60;;;23.40;39.00;;;;;;5012795;28;20575;-66
2021/08/22 04:06:58;;;;;;;3.83;3.63;;;23.40;39.00;;;;;;5012551;28;20184;-66
2021/08/22 04:09:25;;;;;;;3.77;3.57;;;23.50;39.20;;;;;;5012614;28;20201;-66
2021/08/22 04:11:56;;;;;;;4.13;3.83;;;23.50;39.20;;;;;;5012651;28;20181;-65
2021/08/22 04:14:22;;;;;;;4.03;3.73;;;23.40;39.10;;;;;;5012485;28;20917;-65
2021/08/22 04:16:48;;;;;;;4.30;4.00;;;23.40;39.00;;;;;;5012306;28;20465;-66
2021/08/22 04:19:14;;;;;;;3.63;3.43;;;23.40;39.20;;;;;;5012433;28;20213;-65
2021/08/22 04:21:41;;;;;;;4.50;4.20;;;23.40;39.10;;;;;;5012511;28;20419;-65
2021/08/22 04:24:07;;;;;;;3.93;3.63;;;23.50;39.90;;;;;;5012340;28;20423;-66
2021/08/22 04:26:33;;;;;;;4.10;3.80;;;23.40;39.10;;;;;;5012409;28;20874;-66
2021/08/22 04:28:59;;;;;;;4.47;4.17;;;23.40;39.10;;;;;;5011993;28;20464;-65
2021/08/22 04:31:25;;;;;;;4.80;3.93;;;23.40;39.10;;;;;;5012511;28;20177;-66
2021/08/22 04:33:50;;;;;;;4.00;3.70;;;23.40;39.10;;;;;;5012177;28;20219;-66
2021/08/22 04:36:16;;;;;;;3.90;3.60;;;23.40;39.10;;;;;;5012261;28;20553;-66
2021/08/22 04:38:41;;;;;;;4.30;4.00;;;23.40;39.20;;;;;;5012067;28;20193;-66
2021/08/22 04:41:07;;;;;;;4.20;3.90;;;23.40;39.10;;;;;;5012325;28;20176;-66
2021/08/22 04:43:32;;;;;;;3.93;3.63;;;23.40;39.20;;;;;;5012065;28;20178;-65
2021/08/22 04:45:58;;;;;;;4.47;4.07;;;23.40;39.20;;;;;;5012001;28;20216;-65
2021/08/22 04:48:23;;;;;;;4.30;4.00;;;23.40;39.20;;;;;;5011944;28;20240;-66
2021/08/22 04:50:49;;;;;;;4.77;4.37;;;23.40;39.30;;;;;;5011963;28;20219;-65
2021/08/22 04:53:14;;;;;;;4.20;3.90;;;23.40;39.30;;;;;;5012001;28;20169;-67
2021/08/22 04:55:40;;;;;;;4.70;4.30;;;23.40;39.30;;;;;;5011836;28;20180;-67
2021/08/22 04:58:05;;;;;;;3.60;3.40;;;23.40;39.20;;;;;;5011810;28;20767;-67
2021/08/22 05:00:31;;;;;;;3.63;3.33;;;23.40;39.30;;;;;;5011909;28;20173;-67
2021/08/22 05:02:56;;;;;;;3.87;3.60;;;23.40;39.30;;;;;;5011858;28;20178;-67
2021/08/22 05:05:22;;;;;;;3.93;3.63;;;23.40;39.40;;;;;;5011565;28;20264;-66
2021/08/22 05:07:48;;;;;;;4.13;3.80;;;23.40;39.40;;;;;;5011378;28;20205;-66
2021/08/22 05:10:13;;;;;;;4.70;4.07;;;23.40;39.40;;;;;;5010233;28;20656;-67
2021/08/22 05:12:39;;;;;;;4.50;4.10;;;23.40;39.40;;;;;;5018651;28;20670;-67
2021/08/22 05:15:08;;;;;;;5.30;4.83;;;23.40;39.40;;;;;;5033461;28;20196;-67
2021/08/22 05:17:34;;;;;;;4.33;3.93;;;23.40;39.70;;;;;;5035491;28;20224;-67
2021/08/22 05:19:59;;;;;;;4.33;3.93;;;23.40;39.70;;;;;;5035484;28;20439;-67
2021/08/22 05:22:25;;;;;;;4.20;3.90;;;23.40;39.80;;;;;;5035498;28;20262;-67
2021/08/22 05:24:50;;;;;;;6.80;4.67;;;23.40;40.00;;;;;;5035340;28;20554;-67
2021/08/22 05:27:16;;;;;;;3.87;3.57;;;23.40;40.00;;;;;;5034956;28;20201;-67
2021/08/22 05:29:41;;;;;;;4.27;3.97;;;23.40;40.00;;;;;;5034368;28;20201;-68
2021/08/22 05:32:07;;;;;;;4.30;4.00;;;23.40;40.00;;;;;;5034084;28;20181;-67
2021/08/22 05:34:33;;;;;;;4.50;4.10;;;23.40;40.20;;;;;;5035391;28;20651;-68
2021/08/22 05:36:59;;;;;;;3.87;3.57;;;23.40;40.50;;;;;;5034866;28;20203;-67
2021/08/22 05:39:24;;;;;;;4.20;3.50;;;23.40;40.60;;;;;;5035314;28;20434;-67
2021/08/22 05:41:50;;;;;;;6.83;3.73;;;23.40;40.70;;;;;;5035061;28;20255;-67
2021/08/22 05:44:15;;;;;;;4.30;3.90;;;23.40;40.80;;;;;;5035020;28;20199;-67
2021/08/22 05:46:41;;;;;;;5.73;4.20;;;23.40;41.10;;;;;;5034884;28;20180;-67
2021/08/22 05:49:06;;;;;;;6.10;4.03;;;23.30;41.10;;;;;;5034867;28;20212;-67
2021/08/22 05:51:32;;;;;;;3.57;3.20;;;23.40;41.40;;;;;;5034946;28;20532;-68
2021/08/22 05:53:57;;;;;;;4.23;3.90;;;23.40;41.60;;;;;;5034898;28;20176;-68
2021/08/22 05:56:23;;;;;;;4.10;3.67;;;23.30;41.50;;;;;;5034646;28;20169;-68
2021/08/22 05:58:49;;;;;;;4.03;3.73;;;23.30;41.50;;;;;;5035002;28;20212;-68
2021/08/22 06:01:14;;;;;;;5.60;4.30;;;23.30;41.60;;;;;;5033098;28;20233;-69
2021/08/22 06:03:40;;;;;;;4.00;3.73;;;23.30;41.60;;;;;;5031322;28;20241;-68
2021/08/22 06:06:07;;;;;;;4.70;4.30;;;23.30;41.80;;;;;;5032686;28;20251;-69
2021/08/22 06:08:33;;;;;;;4.00;3.70;;;23.30;41.90;;;;;;5032619;28;20292;-70
2021/08/22 06:10:59;;;;;;;4.87;4.37;;;23.30;42.00;;;;;;5032529;28;20411;-70
2021/08/22 06:13:24;;;;;;;3.80;3.50;;;23.30;41.90;;;;;;5032702;28;20928;-70
2021/08/22 06:15:50;;;;;;;4.10;3.90;;;23.30;42.00;;;;;;5032610;28;20165;-69
2021/08/22 06:18:17;;;;;;;4.27;3.97;;;23.30;42.20;;;;;;5032576;28;20203;-69
2021/08/22 06:20:44;;;;;;;4.40;4.00;;;23.30;42.40;;;;;;5034344;28;20185;-68
2021/08/22 06:23:10;;;;;;;4.03;3.73;;;23.30;42.60;;;;;;5033271;28;20404;-69
2021/08/22 06:25:35;;;;;;;4.30;3.90;;;23.20;42.50;;;;;;5031600;28;20498;-69
2021/08/22 06:28:01;;;;;;;4.60;4.20;;;23.20;42.90;;;;;;5032152;28;20291;-69
2021/08/22 06:30:26;;;;;;;6.20;4.10;;;23.30;43.00;;;;;;5032290;28;20179;-69
2021/08/22 06:32:52;;;;;;;5.20;4.20;;;23.30;43.20;;;;;;5025928;28;20181;-69
2021/08/22 06:35:17;;;;;;;4.73;4.10;;;23.30;43.20;;;;;;5020425;28;20174;-69
2021/08/22 06:37:43;;;;;;;6.40;4.10;;;23.30;43.20;;;;;;5032071;28;20275;-70
2021/08/22 06:40:09;;;;;;;8.57;3.93;;;23.30;43.20;;;;;;5032656;28;20243;-68
2021/08/22 06:42:35;;;;;;;4.93;4.40;;;23.30;43.20;;;;;;5033372;28;20621;-68
2021/08/22 06:45:01;;;;;;;5.97;5.23;;;23.20;43.10;;;;;;5033778;28;20502;-68
2021/08/22 06:47:27;;;;;;;4.40;4.00;;;23.30;43.90;;;;;;5031765;28;20196;-68
2021/08/22 06:49:52;;;;;;;5.07;3.87;;;23.30;43.20;;;;;;5031689;28;20932;-68
2021/08/22 06:52:18;;;;;;;4.50;4.20;;;23.20;43.10;;;;;;5031854;28;20719;-69
2021/08/22 06:54:44;;;;;;;4.97;4.47;;;23.20;43.10;;;;;;5027327;28;20188;-69
2021/08/22 06:57:11;;;;;;;5.03;4.53;;;23.20;43.10;;;;;;5030458;28;20587;-69
2021/08/22 06:59:37;;;;;;;4.60;4.30;;;23.20;43.10;;;;;;5031743;28;20184;-67
2021/08/22 07:02:03;;;;;;;5.40;4.90;;;23.20;43.10;;;;;;5032944;28;20412;-69
2021/08/22 07:04:29;;;;;;;4.73;4.43;;;23.20;43.10;;;;;;5033481;28;20407;-69
2021/08/22 07:06:54;;;;;;;4.57;4.17;;;23.20;43.10;;;;;;5033377;28;20215;-69
2021/08/22 07:09:20;;;;;;;6.00;4.90;;;23.20;43.10;;;;;;5033212;28;20200;-68
2021/08/22 07:11:46;;;;;;;4.80;4.40;;;23.30;43.20;;;;;;5033517;28;20188;-68
2021/08/22 07:14:12;;;;;;;6.03;4.90;;;23.20;43.10;;;;;;5033262;28;20169;-69
2021/08/22 07:16:38;;;;;;;8.33;4.87;;;23.20;43.10;;;;;;5033128;28;20419;-67
2021/08/22 07:19:04;;;;;;;5.30;4.90;;;23.20;43.10;;;;;;5048520;28;20199;-68
2021/08/22 07:21:30;;;;;;;5.30;4.90;;;23.20;43.00;;;;;;5033251;28;20412;-68
2021/08/22 07:23:55;;;;;;;5.20;4.80;;;23.20;42.80;;;;;;5033009;28;20176;-69
2021/08/22 07:26:21;;;;;;;5.03;4.57;;;23.20;42.70;;;;;;5048355;28;20712;-68
2021/08/22 07:28:46;;;;;;;5.07;4.57;;;23.30;42.80;;;;;;5032912;28;20239;-67
2021/08/22 07:31:12;;;;;;;5.47;4.23;;;23.30;42.70;;;;;;5033357;28;20179;-67
2021/08/22 07:33:37;;;;;;;5.20;4.73;;;23.30;42.70;;;;;;5019932;28;20303;-67
2021/08/22 07:36:04;;;;;;;5.70;5.20;;;23.20;42.50;;;;;;5026997;28;20180;-67
2021/08/22 07:38:29;;;;;;;4.80;4.50;;;23.20;42.50;;;;;;5023264;28;20213;-67
2021/08/22 07:40:55;;;;;;;4.87;4.47;;;23.30;42.50;;;;;;5013127;28;20439;-67
2021/08/22 07:43:21;;;;;;;6.37;5.20;;;23.30;42.50;;;;;;5018234;28;20181;-67
2021/08/22 07:45:47;;;;;;;5.90;5.30;;;23.30;42.30;;;;;;5013083;28;20215;-67
2021/08/22 07:48:12;;;;;;;7.20;5.60;;;23.30;42.20;;;;;;5012827;28;20341;-68
2021/08/22 07:50:38;;;;;;;6.83;4.60;;;23.30;42.10;;;;;;5013010;28;20176;-68
2021/08/22 07:53:04;;;;;;;5.10;4.60;;;23.30;42.10;;;;;;5012865;28;20169;-67
2021/08/22 07:55:29;;;;;;;5.50;5.00;;;23.30;41.90;;;;;;5012605;28;20256;-68
2021/08/22 07:57:55;;;;;;;7.27;6.10;;;23.30;41.90;;;;;;5012559;28;20213;-68
2021/08/22 08:00:20;;;;;;;7.20;5.00;;;23.30;41.90;;;;;;5012706;28;20173;-68
2021/08/22 08:02:46;;;;;;;6.10;5.50;;;23.30;41.70;;;;;;5012744;28;20177;-68
2021/08/22 08:05:12;;;;;;;6.30;5.70;;;23.30;41.80;;;;;;5012605;28;20192;-68
2021/08/22 08:07:38;;;;;;;5.50;4.73;;;23.30;41.70;;;;;;5012451;28;20241;-68
2021/08/22 08:10:04;;;;;;;4.90;4.50;;;23.30;41.80;;;;;;5012715;28;20404;-68
2021/08/22 08:12:30;;;;;;;6.13;5.63;;;23.30;41.80;;;;;;5015267;28;20179;-68
2021/08/22 08:14:56;;;;;;;6.33;5.30;;;23.40;41.70;;;;;;5021324;28;20412;-68
2021/08/22 08:17:23;;;;;;;4.87;4.50;;;23.30;41.70;;;;;;5032175;28;20196;-68
2021/08/22 08:19:48;;;;;;;4.90;4.60;;;23.30;41.60;;;;;;5032188;28;20415;-68
2021/08/22 08:22:14;;;;;;;5.60;5.17;;;23.30;41.70;;;;;;5023126;28;20441;-68
2021/08/22 08:24:39;;;;;;;6.27;4.90;;;23.30;41.60;;;;;;5031911;28;20231;-68
2021/08/22 08:27:05;;;;;;;5.03;4.60;;;23.30;41.40;;;;;;5031540;28;20211;-68
2021/08/22 08:29:31;;;;;;;4.77;4.47;;;23.40;41.70;;;;;;5031246;28;20196;-68
2021/08/22 08:31:56;;;;;;;5.47;5.07;;;23.30;41.60;;;;;;5030726;28;20244;-67
2021/08/22 08:34:21;;;;;;;6.33;5.73;;;23.40;41.80;;;;;;5014311;28;20177;-68
2021/08/22 08:36:47;;;;;;;5.30;4.90;;;23.40;41.70;;;;;;5011936;28;20567;-68
2021/08/22 08:39:12;;;;;;;5.50;5.10;;;23.40;41.80;;;;;;5012159;28;20193;-68
2021/08/22 08:41:38;;;;;;;5.77;5.37;;;23.40;41.50;;;;;;5012362;28;20197;-68
2021/08/22 08:44:04;;;;;;;5.90;5.37;;;23.40;41.60;;;;;;5012129;28;20181;-67
2021/08/22 08:46:44;;;;;;;4.77;4.47;;;23.40;41.80;;;;;;5011934;28;20177;-69
2021/08/22 08:49:28;;;;;;;5.87;5.07;;;23.40;41.80;;;;;;5011745;28;20456;-68
2021/08/22 08:52:17;;;;;;;6.03;5.27;;;23.40;41.90;;;;;;5012349;28;20441;-69
2021/08/22 08:55:13;;;;;;;5.83;5.33;;;23.40;42.10;;;;;;5011866;28;20463;-68
2021/08/22 08:57:39;;;;;;;5.30;4.83;;;23.40;42.10;;;;;;5011584;28;20467;-68
2021/08/22 09:00:14;;;;;;;4.80;4.40;;;23.50;41.90;;;;;;5011959;28;20412;-68
2021/08/22 09:02:40;;;;;;;5.00;4.60;;;23.40;41.60;;;;;;5012147;28;20171;-68
2021/08/22 09:05:26;;;;;;;4.87;4.37;;;23.40;41.50;;;;;;5011818;28;20770;-68
2021/08/22 09:08:10;;;;;;;5.60;4.80;;;23.40;41.50;;;;;;5011810;28;20197;-68
2021/08/22 09:11:13;;;;;;;5.43;5.03;;;23.40;41.50;;;;;;5011784;28;21224;-68
2021/08/22 09:14:04;;;;;;;5.53;5.07;;;23.40;41.50;;;;;;5020621;28;20833;-68
2021/08/22 09:16:49;;;;;;;6.73;5.60;;;23.40;41.50;;;;;;5031250;28;20779;-68
2021/08/22 09:19:37;;;;;;;5.47;5.10;;;23.40;42.20;;;;;;5031616;28;20510;-68
2021/08/22 09:22:26;;;;;;;4.90;4.50;;;23.40;42.40;;;;;;5031547;28;20494;-67
2021/08/22 09:25:22;;;;;;;5.90;5.40;;;23.50;43.00;;;;;;5031271;28;20813;-68
2021/08/22 09:28:25;;;;;;;6.10;5.50;;;23.50;42.80;;;;;;5031427;28;20459;-68
2021/08/22 09:31:28;;;;;;;5.10;4.30;;;23.50;43.00;;;;;;5031627;28;20414;-67
2021/08/22 09:34:49;;;;;;;5.40;4.90;;;23.50;42.20;;;;;;5031438;28;20407;-65
2021/08/22 09:37:55;;;;;;;5.33;4.93;;;23.50;41.90;;;;;;5031196;28;20427;-68
2021/08/22 09:40:36;;;;;;;5.50;5.00;;;23.50;41.70;;;;;;5031286;28;20446;-68
2021/08/22 09:43:38;;;;;;;5.40;4.90;;;23.50;41.90;;;;;;5031203;28;20418;-68
2021/08/22 09:46:45;;;;;;;5.20;4.80;;;23.50;42.00;;;;;;5030988;28;20411;-67
2021/08/22 09:49:25;;;;;;;4.70;4.20;;;23.50;42.00;;;;;;5028798;28;20470;-66
2021/08/22 09:52:28;;;;;;;5.47;5.07;;;23.50;41.90;;;;;;5030781;28;20762;-68
2021/08/22 09:55:30;;;;;;;5.50;5.10;;;23.50;41.70;;;;;;5031049;28;20407;-67
2021/08/22 09:58:24;;;;;;;6.13;5.53;;;23.50;41.90;;;;;;5030716;28;21070;-67
2021/08/22 10:00:52;;;;;;;5.70;5.20;;;23.60;42.30;;;;;;5032815;28;20489;-69
2021/08/22 10:03:34;;;;;;;6.03;5.50;;;23.60;42.60;;;;;;5034764;28;20411;-67
2021/08/22 10:06:22;;;;;;;6.53;5.30;;;23.60;42.70;;;;;;5034439;28;20415;-66
2021/08/22 10:08:59;;;;;;;6.13;5.60;;;23.60;43.00;;;;;;5034494;28;20469;-67
2021/08/22 10:11:38;;;;;;;7.63;6.00;;;23.60;42.80;;;;;;5034487;28;20410;-68
2021/08/22 10:14:08;;;;;;;5.80;5.30;;;23.60;42.70;;;;;;5034460;28;20407;-66
2021/08/22 10:16:35;;;;;;;6.07;5.53;;;23.60;42.70;;;;;;5034149;28;20403;-66
2021/08/22 10:19:08;;;;;;;6.00;5.50;;;23.60;42.70;;;;;;5034233;28;20443;-68
2021/08/22 10:21:34;;;;;;;6.77;5.53;;;23.60;42.20;;;;;;5034223;28;20809;-66
2021/08/22 10:24:43;;;;;;;6.17;5.67;;;23.60;42.20;;;;;;5034248;28;20898;-66
2021/08/22 10:27:11;;;;;;;5.33;4.87;;;23.60;42.70;;;;;;5034163;28;20798;-66
2021/08/22 10:29:49;;;;;;;6.00;5.50;;;23.60;42.70;;;;;;5034002;28;20513;-67
2021/08/22 10:32:15;;;;;;;5.30;4.80;;;23.60;42.40;;;;;;5034257;28;20477;-66
2021/08/22 10:34:45;;;;;;;5.57;4.90;;;23.60;42.50;;;;;;5033889;28;20415;-67
2021/08/22 10:37:31;;;;;;;6.30;5.80;;;23.60;43.00;;;;;;5033985;28;20431;-67
2021/08/22 10:39:57;;;;;;;39.97;35.73;;;23.60;42.80;;;;;;5025308;28;20420;-66
2021/08/22 10:42:26;;;;;;;153.90;138.30;;;23.60;43.50;;;;;;5021425;28;20419;-67
2021/08/22 10:44:52;;;;;;;181.60;163.20;;;23.60;43.40;;;;;;5014003;28;20424;-67
2021/08/22 10:47:20;;;;;;;165.83;149.37;;;23.60;43.70;;;;;;5013911;28;20511;-66
2021/08/22 10:49:52;;;;;;;143.00;127.60;;;23.70;44.70;;;;;;5014076;28;20464;-67
2021/08/22 10:52:24;;;;;;;138.77;125.00;;;23.70;45.30;;;;;;5013915;28;20427;-67
2021/08/22 10:55:15;;;;;;;133.63;121.07;;;23.70;45.70;;;;;;5013832;28;20420;-66
2021/08/22 11:00:29;;;;;;;126.00;112.90;;;23.70;46.10;;;;;;5014060;28;20443;-67
2021/08/22 11:02:56;;;;;;;116.30;105.20;;;23.70;45.90;;;;;;5013725;28;20416;-67
2021/08/22 11:05:40;;;;;;;114.40;102.97;;;23.70;45.80;;;;;;5013797;28;20419;-67
2021/08/22 11:08:17;;;;;;;107.70;97.33;;;23.70;45.80;;;;;;5016797;28;20522;-68
2021/08/22 11:10:59;;;;;;;104.27;93.97;;;23.70;45.40;;;;;;5013764;28;20408;-67
2021/08/22 11:13:26;;;;;;;89.20;80.90;;;23.70;44.50;;;;;;5022815;28;20420;-67
2021/08/22 11:15:52;;;;;;;86.37;77.77;;;23.70;45.10;;;;;;5033383;28;20772;-67
2021/08/22 11:18:18;;;;;;;83.10;74.63;;;23.70;44.90;;;;;;5029975;28;20458;-66
2021/08/22 11:20:44;;;;;;;77.87;70.27;;;23.70;44.50;;;;;;5033468;28;20540;-67
2021/08/22 11:23:16;;;;;;;64.37;58.20;;;23.70;44.00;;;;;;5033087;28;20449;-67
2021/08/22 11:25:46;;;;;;;55.13;49.57;;;23.70;44.50;;;;;;5032977;28;20422;-67
2021/08/22 11:28:20;;;;;;;38.77;35.20;;;23.70;44.20;;;;;;5032821;28;20520;-67
2021/08/22 11:30:46;;;;;;;30.23;27.43;;;23.70;44.10;;;;;;5033211;28;20456;-67
2021/08/22 11:33:13;;;;;;;21.00;19.00;;;23.70;44.00;;;;;;5032869;28;20447;-67
2021/08/22 11:35:43;;;;;;;17.90;15.97;;;23.60;43.50;;;;;;5032943;28;20831;-67
2021/08/22 11:38:09;;;;;;;16.60;15.00;;;23.60;43.50;;;;;;5032761;28;20934;-67
2021/08/22 11:40:37;;;;;;;14.10;12.70;;;23.60;43.50;;;;;;5031620;28;20453;-68
2021/08/22 11:43:05;;;;;;;12.77;11.43;;;23.60;43.50;;;;;;5032865;28;20430;-67
2021/08/22 11:45:37;;;;;;;13.37;12.17;;;23.60;43.50;;;;;;5032607;28;20477;-67
2021/08/22 11:48:05;;;;;;;11.90;10.93;;;23.70;43.30;;;;;;5032645;28;20462;-67
2021/08/22 11:50:35;;;;;;;11.23;10.30;;;23.70;43.10;;;;;;5032647;28;20408;-66
2021/08/22 11:53:03;;;;;;;9.57;8.73;;;23.70;42.90;;;;;;5032882;28;20404;-67
2021/08/22 11:55:32;;;;;;;9.30;8.50;;;23.70;42.90;;;;;;5032220;28;20419;-66
2021/08/22 11:58:14;;;;;;;9.97;8.50;;;23.70;42.80;;;;;;5032540;28;20454;-66
2021/08/22 12:00:45;;;;;;;7.90;7.20;;;23.70;42.60;;;;;;5032499;28;20783;-67
2021/08/22 12:03:13;;;;;;;7.80;7.20;;;23.70;42.40;;;;;;5032480;28;20485;-66
2021/08/22 12:05:53;;;;;;;8.17;7.37;;;23.70;42.40;;;;;;5032209;28;20905;-67
2021/08/22 12:08:19;;;;;;;8.37;7.53;;;23.80;42.30;;;;;;5032125;28;20498;-66
2021/08/22 12:10:45;;;;;;;9.13;6.70;;;23.70;42.30;;;;;;5031782;28;20463;-67
2021/08/22 12:13:19;;;;;;;6.87;6.20;;;23.70;42.20;;;;;;5032324;28;20181;-67
2021/08/22 12:15:46;;;;;;;6.83;6.23;;;23.70;42.20;;;;;;5032023;28;20248;-67
2021/08/22 12:18:30;;;;;;;6.50;6.00;;;23.70;42.20;;;;;;5032228;28;20852;-68
2021/08/22 12:21:01;;;;;;;4.97;4.63;;;23.70;42.30;;;;;;5032338;28;20420;-68
2021/08/22 12:23:37;;;;;;;4.53;4.17;;;23.70;42.40;;;;;;5031650;28;20914;-67
2021/08/22 12:26:28;;;;;;;4.20;3.90;;;23.70;42.40;;;;;;5031741;28;20439;-67
2021/08/22 12:28:59;;;;;;;4.90;4.53;;;23.70;42.40;;;;;;5032262;28;20481;-67
2021/08/22 12:31:37;;;;;;;4.10;3.80;;;23.70;42.30;;;;;;5032068;28;20443;-68
2021/08/22 12:34:08;;;;;;;3.40;3.20;;;23.70;42.40;;;;;;5032026;28;20442;-67
2021/08/22 12:36:37;;;;;;;3.80;3.40;;;23.70;42.50;;;;;;5031724;28;20418;-67
2021/08/22 12:39:04;;;;;;;4.03;3.73;;;23.70;42.40;;;;;;5031839;28;20431;-67
2021/08/22 12:41:42;;;;;;;4.63;4.03;;;23.70;42.30;;;;;;5032056;28;20860;-66
2021/08/22 12:44:09;;;;;;;3.87;3.57;;;23.70;42.30;;;;;;5032018;28;20502;-68
2021/08/22 12:46:36;;;;;;;3.40;3.10;;;23.70;42.20;;;;;;5031717;28;20460;-67
2021/08/22 12:49:03;;;;;;;3.40;3.20;;;23.80;42.30;;;;;;5031684;28;20455;-67
2021/08/22 12:51:29;;;;;;;3.17;2.73;;;23.70;42.20;;;;;;5032020;28;20415;-66
2021/08/22 12:53:56;;;;;;;3.20;3.00;;;23.70;42.20;;;;;;5031745;28;20414;-67
2021/08/22 12:56:22;;;;;;;3.07;2.83;;;23.70;42.20;;;;;;5031570;28;20889;-67
2021/08/22 12:58:49;;;;;;;3.00;2.80;;;23.70;42.10;;;;;;5031579;28;20459;-68
2021/08/22 13:01:15;;;;;;;2.77;2.57;;;23.70;42.20;;;;;;5031730;28;20530;-67